createdAt,value
2023-11-05T00:02:18.796Z,15.70
2023-11-05T00:04:46.679Z,17.60
2023-11-05T00:07:14.709Z,15.60
2023-11-05T00:09:43.310Z,15.90
2023-11-05T00:12:11.171Z,15.20
2023-11-05T00:14:39.032Z,16.10
2023-11-05T00:17:07.127Z,14.40
2023-11-05T00:19:35.437Z,15.30
2023-11-05T00:22:03.351Z,14.70
2023-11-05T00:24:31.273Z,15.20
2023-11-05T00:26:59.170Z,15.00
2023-11-05T00:29:27.067Z,14.80
2023-11-05T00:31:54.896Z,14.30
2023-11-05T00:34:22.998Z,14.30
2023-11-05T00:36:50.939Z,16.80
2023-11-05T00:39:18.816Z,16.60
2023-11-05T00:41:46.768Z,17.50
2023-11-05T00:44:14.737Z,17.40
2023-11-05T00:46:42.701Z,17.30
2023-11-05T00:49:11.726Z,16.90
2023-11-05T00:51:39.577Z,17.30
2023-11-05T00:54:07.603Z,17.10
2023-11-05T00:56:35.869Z,18.40
2023-11-05T00:59:04.057Z,17.40
2023-11-05T01:01:32.081Z,16.60
2023-11-05T01:04:00.078Z,17.20
2023-11-05T01:06:28.028Z,17.00
2023-11-05T01:08:55.966Z,18.20
2023-11-05T01:11:23.796Z,16.90
2023-11-05T01:13:51.652Z,15.50
2023-11-05T01:16:19.712Z,15.60
2023-11-05T01:18:48.116Z,16.80
2023-11-05T01:21:16.137Z,14.50
2023-11-05T01:23:44.015Z,16.20
2023-11-05T01:26:12.352Z,15.10
2023-11-05T01:28:41.520Z,16.50
2023-11-05T01:31:09.423Z,14.80
2023-11-05T01:33:37.474Z,13.50
2023-11-05T01:36:06.885Z,14.50
2023-11-05T01:38:34.836Z,14.70
2023-11-05T01:41:02.731Z,13.10
2023-11-05T01:43:30.672Z,14.40
2023-11-05T01:45:58.764Z,12.00
2023-11-05T01:48:27.787Z,12.70
2023-11-05T01:50:57.215Z,12.70
2023-11-05T01:53:26.815Z,12.60
2023-11-05T01:55:54.971Z,13.00
2023-11-05T01:58:24.300Z,13.60
2023-11-05T02:00:53.062Z,11.60
2023-11-05T02:03:20.944Z,10.50
2023-11-05T02:05:49.893Z,10.90
2023-11-05T02:08:17.785Z,11.40
2023-11-05T02:10:46.848Z,11.30
2023-11-05T02:13:14.681Z,10.70
2023-11-05T02:15:42.721Z,10.40
2023-11-05T02:18:10.641Z,9.80
2023-11-05T02:20:38.736Z,10.30
2023-11-05T02:23:08.915Z,10.20
2023-11-05T02:25:36.787Z,9.50
2023-11-05T02:28:05.126Z,10.20
2023-11-05T02:30:33.424Z,10.10
2023-11-05T02:33:02.057Z,11.50
2023-11-05T02:35:30.312Z,11.60
2023-11-05T02:37:58.196Z,9.80
2023-11-05T02:40:26.178Z,10.00
2023-11-05T02:42:53.996Z,10.60
2023-11-05T02:45:21.900Z,12.30
2023-11-05T02:47:50.327Z,12.30
2023-11-05T02:50:18.245Z,13.20
2023-11-05T02:52:46.165Z,12.50
2023-11-05T02:55:14.233Z,12.70
2023-11-05T02:57:42.151Z,14.00
2023-11-05T03:00:12.135Z,13.60
2023-11-05T03:02:40.658Z,12.80
2023-11-05T03:05:09.209Z,12.90
2023-11-05T03:07:37.183Z,12.80
2023-11-05T03:10:05.845Z,13.90
2023-11-05T03:12:33.702Z,13.90
2023-11-05T03:15:01.813Z,15.00
2023-11-05T03:17:29.845Z,14.20
2023-11-05T03:19:57.796Z,12.10
2023-11-05T03:22:25.681Z,11.00
2023-11-05T03:24:53.813Z,9.30
2023-11-05T03:27:21.629Z,9.70
2023-11-05T03:29:49.516Z,11.10
2023-11-05T03:32:17.423Z,12.50
2023-11-05T03:34:46.393Z,12.80
2023-11-05T03:37:14.311Z,11.30
2023-11-05T03:39:42.133Z,12.50
2023-11-05T03:42:10.195Z,11.30
2023-11-05T03:44:38.224Z,13.20
2023-11-05T03:47:06.711Z,14.50
2023-11-05T03:49:34.621Z,13.40
2023-11-05T03:52:02.847Z,12.50
2023-11-05T03:54:31.019Z,11.30
2023-11-05T03:57:00.786Z,13.90
2023-11-05T03:59:28.949Z,14.80
2023-11-05T04:01:56.836Z,13.20
2023-11-05T04:04:25.100Z,17.40
2023-11-05T04:06:52.949Z,17.00
2023-11-05T04:09:20.768Z,17.10
2023-11-05T04:11:48.655Z,17.70
2023-11-05T04:14:17.018Z,14.80
2023-11-05T04:16:44.938Z,13.60
2023-11-05T04:19:13.873Z,13.40
2023-11-05T04:21:41.823Z,13.10
2023-11-05T04:24:09.747Z,12.90
2023-11-05T04:26:37.569Z,14.20
2023-11-05T04:29:05.529Z,11.90
2023-11-05T04:31:33.403Z,11.10
2023-11-05T04:34:02.681Z,10.70
2023-11-05T04:36:30.570Z,10.70
2023-11-05T04:38:58.450Z,14.20
2023-11-05T04:41:26.306Z,11.30
2023-11-05T04:43:54.187Z,11.00
2023-11-05T04:46:22.019Z,10.80
2023-11-05T04:48:49.967Z,10.10
2023-11-05T04:51:18.019Z,12.80
2023-11-05T04:53:45.917Z,10.30
2023-11-05T04:56:17.477Z,9.00
2023-11-05T04:58:45.367Z,9.90
2023-11-05T05:01:13.302Z,13.60
2023-11-05T05:03:41.309Z,11.30
2023-11-05T05:06:09.431Z,11.00
2023-11-05T05:08:37.302Z,9.20
2023-11-05T05:11:05.719Z,8.20
2023-11-05T05:13:33.593Z,7.50
2023-11-05T05:16:02.514Z,7.90
2023-11-05T05:18:30.475Z,7.20
2023-11-05T05:20:58.344Z,7.10
2023-11-05T05:23:26.271Z,7.60
2023-11-05T05:25:54.164Z,7.90
2023-11-05T05:28:22.166Z,11.00
2023-11-05T05:30:50.085Z,9.50
2023-11-05T05:33:17.965Z,7.80
2023-11-05T05:35:45.993Z,7.10
2023-11-05T05:38:13.808Z,7.60
2023-11-05T05:40:41.696Z,7.60
2023-11-05T05:43:09.584Z,8.80
2023-11-05T05:45:37.397Z,7.20
2023-11-05T05:48:05.619Z,7.70
2023-11-05T05:50:33.474Z,6.70
2023-11-05T05:53:01.307Z,8.40
2023-11-05T05:55:29.338Z,9.20
2023-11-05T05:57:57.631Z,8.70
2023-11-05T06:00:25.607Z,9.00
2023-11-05T06:02:53.932Z,15.10
2023-11-05T06:05:22.047Z,8.60
2023-11-05T06:07:49.962Z,9.60
2023-11-05T06:10:18.081Z,8.70
2023-11-05T06:12:45.947Z,8.10
2023-11-05T06:15:13.905Z,9.40
2023-11-05T06:17:42.257Z,8.40
2023-11-05T06:20:10.981Z,8.40
2023-11-05T06:22:39.741Z,8.60
2023-11-05T06:25:11.951Z,9.90
2023-11-05T06:27:40.967Z,7.90
2023-11-05T06:30:11.179Z,6.90
2023-11-05T06:32:40.111Z,7.00
2023-11-05T06:35:08.578Z,7.00
2023-11-05T06:37:36.554Z,7.10
2023-11-05T06:40:06.086Z,5.90
2023-11-05T06:42:33.993Z,7.60
2023-11-05T06:45:01.972Z,8.80
2023-11-05T06:47:30.369Z,8.40
2023-11-05T06:49:58.378Z,8.70
2023-11-05T06:52:27.907Z,9.00
2023-11-05T06:54:57.763Z,9.20
2023-11-05T06:57:25.959Z,7.70
2023-11-05T06:59:53.848Z,9.60
2023-11-05T07:02:21.684Z,9.40
2023-11-05T07:04:49.704Z,7.90
2023-11-05T07:07:19.627Z,8.50
2023-11-05T07:09:49.326Z,8.40
2023-11-05T07:12:17.294Z,9.00
2023-11-05T07:14:45.126Z,12.30
2023-11-05T07:17:13.612Z,12.20
2023-11-05T07:19:41.468Z,12.50
2023-11-05T07:22:09.432Z,12.00
2023-11-05T07:24:37.338Z,11.90
2023-11-05T07:27:06.314Z,9.70
2023-11-05T07:29:34.129Z,8.90
2023-11-05T07:32:02.038Z,8.80
2023-11-05T07:34:29.905Z,9.20
2023-11-05T07:36:58.383Z,8.80
2023-11-05T07:39:26.264Z,8.80
2023-11-05T07:41:54.132Z,8.40
2023-11-05T07:44:22.238Z,10.70
2023-11-05T07:46:50.112Z,8.80
2023-11-05T07:49:17.970Z,8.90
2023-11-05T07:51:45.920Z,8.70
2023-11-05T07:54:13.841Z,8.60
2023-11-05T07:56:41.755Z,7.80
2023-11-05T07:59:09.667Z,7.60
2023-11-05T08:01:37.920Z,7.10
2023-11-05T08:04:05.842Z,7.60
2023-11-05T08:06:33.637Z,7.40
2023-11-05T08:09:01.508Z,7.80
2023-11-05T08:11:29.380Z,7.20
2023-11-05T08:13:57.906Z,8.20
2023-11-05T08:16:28.002Z,8.50
2023-11-05T08:18:55.974Z,11.00
2023-11-05T08:21:24.966Z,10.20
2023-11-05T08:23:53.017Z,10.10
2023-11-05T08:26:21.013Z,8.90
2023-11-05T08:28:49.226Z,10.00
2023-11-05T08:31:17.206Z,10.00
2023-11-05T08:33:47.424Z,9.90
2023-11-05T08:36:16.903Z,9.60
2023-11-05T08:38:44.739Z,11.50
2023-11-05T08:41:12.630Z,13.30
2023-11-05T08:43:40.708Z,12.60
2023-11-05T08:46:10.443Z,12.30
2023-11-05T08:48:38.572Z,11.70
2023-11-05T08:51:06.650Z,11.20
2023-11-05T08:53:34.536Z,10.70
2023-11-05T08:56:03.175Z,10.50
2023-11-05T08:58:31.353Z,11.60
2023-11-05T09:01:00.985Z,11.90
2023-11-05T09:03:28.974Z,12.90
2023-11-05T09:05:56.884Z,13.70
2023-11-05T09:08:24.945Z,12.80
2023-11-05T09:10:53.050Z,11.90
2023-11-05T09:13:21.027Z,12.90
2023-11-05T09:15:51.238Z,13.80
2023-11-05T09:18:19.302Z,13.60
2023-11-05T09:20:47.188Z,13.00
2023-11-05T09:23:15.088Z,11.30
2023-11-05T09:25:43.038Z,12.00
2023-11-05T09:28:11.023Z,11.20
2023-11-05T09:30:38.918Z,10.90
2023-11-05T09:33:07.041Z,12.70
2023-11-05T09:35:34.986Z,10.00
2023-11-05T09:38:04.260Z,9.50
2023-11-05T09:40:35.585Z,9.10
2023-11-05T09:43:11.681Z,11.80
2023-11-05T09:45:39.638Z,11.10
2023-11-05T09:48:09.860Z,7.80
2023-11-05T09:50:38.836Z,8.40
2023-11-05T09:53:08.683Z,7.30
2023-11-05T09:55:36.640Z,6.50
2023-11-05T09:58:04.682Z,7.80
2023-11-05T10:00:34.141Z,8.30
2023-11-05T10:03:10.028Z,8.20
2023-11-05T10:05:40.391Z,6.70
2023-11-05T10:08:09.835Z,7.20
2023-11-05T10:10:40.084Z,8.80
2023-11-05T10:13:08.228Z,9.20
2023-11-05T10:15:41.208Z,16.20
2023-11-05T10:18:19.770Z,8.50
2023-11-05T10:20:50.753Z,7.50
2023-11-05T10:23:18.801Z,6.80
2023-11-05T10:25:54.280Z,6.40
2023-11-05T10:28:24.260Z,12.80
2023-11-05T10:30:56.449Z,6.50
2023-11-05T10:33:26.443Z,7.30
2023-11-05T10:35:55.091Z,5.90
2023-11-05T10:38:24.676Z,6.90
2023-11-05T10:40:53.446Z,7.20
2023-11-05T10:43:25.167Z,7.00
2023-11-05T10:45:55.564Z,8.60
2023-11-05T10:48:23.555Z,8.80
2023-11-05T10:50:54.548Z,9.10
2023-11-05T10:53:23.968Z,11.10
2023-11-05T10:55:52.838Z,11.10
2023-11-05T10:58:25.318Z,10.30
2023-11-05T11:01:04.582Z,9.50
2023-11-05T11:03:32.647Z,8.00
2023-11-05T11:06:01.905Z,8.30
2023-11-05T11:08:31.952Z,7.80
2023-11-05T11:11:13.353Z,7.50
2023-11-05T11:13:58.832Z,6.90
2023-11-05T11:16:33.608Z,6.50
2023-11-05T11:19:08.326Z,7.90
2023-11-05T11:21:59.116Z,8.90
2023-11-05T11:24:41.684Z,9.70
2023-11-05T11:27:16.039Z,9.40
2023-11-05T11:29:46.558Z,8.60
2023-11-05T11:32:17.626Z,7.90
2023-11-05T11:34:46.266Z,9.10
2023-11-05T11:37:16.119Z,8.70
2023-11-05T11:39:44.173Z,10.00
2023-11-05T11:42:12.740Z,10.40
2023-11-05T11:44:40.678Z,14.60
2023-11-05T11:47:09.424Z,14.70
2023-11-05T11:49:37.511Z,14.40
2023-11-05T11:52:06.053Z,13.20
2023-11-05T11:54:34.067Z,13.00
2023-11-05T11:57:02.098Z,11.70
2023-11-05T11:59:30.123Z,12.70
2023-11-05T12:01:58.802Z,12.50
2023-11-05T12:04:27.487Z,13.40
2023-11-05T12:06:55.425Z,11.00
2023-11-05T12:09:25.085Z,10.90
2023-11-05T12:11:53.846Z,11.50
2023-11-05T12:14:29.173Z,11.00
2023-11-05T12:16:57.356Z,11.00
2023-11-05T12:19:26.011Z,11.00
2023-11-05T12:21:54.873Z,10.80
2023-11-05T12:24:23.042Z,10.60
2023-11-05T12:26:51.044Z,12.50
2023-11-05T12:29:20.380Z,13.00
2023-11-05T12:31:49.283Z,16.60
2023-11-05T12:34:17.168Z,15.20
2023-11-05T12:36:45.400Z,11.40
2023-11-05T12:39:13.656Z,10.40
2023-11-05T12:41:43.692Z,10.30
2023-11-05T12:44:11.759Z,10.60
2023-11-05T12:46:39.701Z,11.20
2023-11-05T12:49:07.737Z,10.50
2023-11-05T12:51:36.137Z,9.50
2023-11-05T12:54:05.225Z,9.90
2023-11-05T12:56:33.221Z,10.70
2023-11-05T12:59:01.548Z,13.40
2023-11-05T13:01:29.852Z,10.10
2023-11-05T13:03:58.587Z,11.60
2023-11-05T13:06:28.201Z,11.90
2023-11-05T13:08:56.411Z,14.90
2023-11-05T13:11:25.366Z,13.70
2023-11-05T13:13:53.501Z,12.50
2023-11-05T13:16:22.597Z,11.40
2023-11-05T13:18:50.925Z,11.40
2023-11-05T13:21:19.196Z,10.40
2023-11-05T13:23:47.842Z,13.70
2023-11-05T13:26:18.533Z,11.80
2023-11-05T13:28:46.434Z,11.80
2023-11-05T13:31:14.455Z,11.30
2023-11-05T13:33:42.783Z,11.50
2023-11-05T13:36:10.795Z,10.90
2023-11-05T13:38:38.880Z,11.50
2023-11-05T13:41:07.589Z,10.40
2023-11-05T13:43:35.602Z,10.10
2023-11-05T13:46:04.294Z,10.10
2023-11-05T13:48:32.641Z,10.90
2023-11-05T13:51:01.063Z,9.30
2023-11-05T13:53:28.901Z,8.00
2023-11-05T13:55:56.830Z,8.10
2023-11-05T13:58:24.743Z,8.00
2023-11-05T14:00:55.414Z,8.20
2023-11-05T14:03:23.488Z,8.60
2023-11-05T14:05:51.736Z,8.80
2023-11-05T14:08:19.817Z,6.30
2023-11-05T14:10:50.431Z,6.70
2023-11-05T14:13:18.814Z,7.00
2023-11-05T14:15:46.710Z,6.90
2023-11-05T14:18:14.739Z,11.10
2023-11-05T14:20:42.834Z,8.30
2023-11-05T14:23:13.619Z,8.30
2023-11-05T14:25:43.192Z,9.30
2023-11-05T14:28:11.602Z,8.60
2023-11-05T14:30:39.474Z,10.40
2023-11-05T14:33:07.516Z,8.60
2023-11-05T14:35:35.514Z,7.70
2023-11-05T14:38:05.083Z,10.60
2023-11-05T14:40:33.261Z,13.30
2023-11-05T14:43:03.559Z,12.40
2023-11-05T14:45:33.044Z,14.30
2023-11-05T14:48:02.493Z,19.90
2023-11-05T14:50:31.415Z,14.90
2023-11-05T14:53:00.365Z,18.60
2023-11-05T14:55:28.423Z,18.10
2023-11-05T14:57:56.676Z,14.20
2023-11-05T15:00:24.589Z,19.40
2023-11-05T15:02:52.610Z,26.20
2023-11-05T15:05:21.311Z,23.20
2023-11-05T15:07:49.600Z,29.50
2023-11-05T15:10:18.084Z,26.40
2023-11-05T15:12:45.946Z,21.70
2023-11-05T15:15:13.954Z,18.90
2023-11-05T15:17:43.850Z,17.80
2023-11-05T15:20:11.987Z,21.10
2023-11-05T15:22:43.098Z,20.60
2023-11-05T15:25:11.626Z,49.80
2023-11-05T15:27:39.642Z,35.00
2023-11-05T15:30:09.853Z,29.10
2023-11-05T15:32:38.941Z,29.10
2023-11-05T15:35:07.430Z,25.90
2023-11-05T15:37:35.547Z,28.80
2023-11-05T15:40:05.369Z,33.90
2023-11-05T15:42:37.941Z,31.40
2023-11-05T15:45:06.306Z,27.10
2023-11-05T15:47:34.474Z,32.10
2023-11-05T15:50:02.423Z,38.40
2023-11-05T15:52:30.417Z,38.50
2023-11-05T15:54:58.447Z,33.60
2023-11-05T15:57:26.269Z,27.80
2023-11-05T15:59:54.128Z,28.90
2023-11-05T16:02:21.985Z,28.90
2023-11-05T16:04:50.219Z,45.40
2023-11-05T16:07:21.948Z,43.90
2023-11-05T16:09:51.058Z,54.50
2023-11-05T16:12:21.508Z,50.70
2023-11-05T16:14:51.483Z,32.90
2023-11-05T16:17:20.342Z,26.10
2023-11-05T16:19:49.529Z,27.30
2023-11-05T16:22:17.565Z,30.60
2023-11-05T16:24:45.801Z,32.50
2023-11-05T16:27:13.978Z,31.70
2023-11-05T16:29:42.021Z,38.20
2023-11-05T16:32:09.971Z,43.00
2023-11-05T16:34:42.888Z,35.60
2023-11-05T16:37:11.067Z,42.50
2023-11-05T16:39:41.742Z,46.10
2023-11-05T16:42:11.301Z,45.10
2023-11-05T16:44:39.373Z,51.90
2023-11-05T16:47:11.461Z,45.00
2023-11-05T16:49:41.195Z,40.50
2023-11-05T16:52:09.295Z,55.10
2023-11-05T16:54:38.351Z,44.10
2023-11-05T16:57:08.377Z,48.60
2023-11-05T16:59:38.848Z,58.70
2023-11-05T17:02:10.824Z,47.70
2023-11-05T17:04:40.373Z,47.10
2023-11-05T17:07:08.758Z,55.40
2023-11-05T17:09:36.746Z,61.90
2023-11-05T17:12:05.067Z,41.60
2023-11-05T17:14:33.218Z,36.80
2023-11-05T17:17:02.207Z,39.20
2023-11-05T17:19:30.631Z,42.80
2023-11-05T17:21:58.712Z,46.30
2023-11-05T17:24:26.802Z,45.40
2023-11-05T17:26:55.747Z,42.60
2023-11-05T17:29:23.787Z,34.50
2023-11-05T17:31:51.806Z,37.20
2023-11-05T17:34:19.872Z,31.10
2023-11-05T17:36:48.186Z,29.50
2023-11-05T17:39:16.082Z,29.00
2023-11-05T17:41:44.654Z,26.40
2023-11-05T17:44:13.180Z,27.20
2023-11-05T17:46:41.108Z,24.80
2023-11-05T17:49:11.255Z,23.10
2023-11-05T17:51:39.229Z,22.10
2023-11-05T17:54:07.397Z,21.00
2023-11-05T17:56:35.261Z,20.60
2023-11-05T17:59:03.268Z,22.20
2023-11-05T18:01:31.316Z,20.30
2023-11-05T18:03:59.338Z,20.30
2023-11-05T18:06:27.240Z,17.50
2023-11-05T18:08:55.631Z,15.50
2023-11-05T18:11:25.310Z,14.50
2023-11-05T18:13:53.243Z,16.20
2023-11-05T18:16:21.390Z,17.30
2023-11-05T18:18:49.317Z,17.40
2023-11-05T18:21:17.257Z,16.70
2023-11-05T18:23:45.121Z,15.30
2023-11-05T18:26:13.059Z,13.50
2023-11-05T18:28:41.000Z,13.30
2023-11-05T18:31:09.169Z,11.60
2023-11-05T18:33:37.212Z,10.70
2023-11-05T18:36:05.599Z,10.10
2023-11-05T18:38:33.807Z,9.60
2023-11-05T18:41:02.529Z,9.40
2023-11-05T18:43:30.465Z,11.90
2023-11-05T18:46:00.666Z,18.00
2023-11-05T18:48:29.339Z,20.10
2023-11-05T18:50:57.258Z,12.90
2023-11-05T18:53:25.158Z,12.50
2023-11-05T18:55:53.076Z,11.90
2023-11-05T18:58:21.322Z,12.10
2023-11-05T19:00:49.147Z,10.40
2023-11-05T19:03:17.195Z,10.50
2023-11-05T19:05:45.309Z,8.00
2023-11-05T19:08:13.347Z,7.30
2023-11-05T19:10:42.373Z,7.20
2023-11-05T19:13:10.336Z,8.30
2023-11-05T19:15:38.181Z,9.40
2023-11-05T19:18:06.164Z,10.30
2023-11-05T19:20:34.051Z,9.30
2023-11-05T19:23:01.982Z,9.00
2023-11-05T19:25:29.844Z,10.10
2023-11-05T19:27:57.766Z,10.10
2023-11-05T19:30:25.625Z,9.80
2023-11-05T19:32:53.607Z,8.20
2023-11-05T19:35:21.702Z,14.90
2023-11-05T19:37:49.582Z,15.90
2023-11-05T19:40:17.443Z,11.30
2023-11-05T19:42:46.512Z,14.10
2023-11-05T19:45:14.415Z,9.90
2023-11-05T19:47:43.725Z,9.50
2023-11-05T19:50:14.791Z,14.20
2023-11-05T19:52:43.196Z,15.40
2023-11-05T19:55:11.349Z,14.40
2023-11-05T19:57:39.310Z,15.80
2023-11-05T20:00:07.912Z,7.90
2023-11-05T20:02:41.104Z,8.30
2023-11-05T20:05:10.685Z,10.10
2023-11-05T20:07:39.027Z,9.30
2023-11-05T20:10:07.337Z,7.50
2023-11-05T20:12:38.633Z,6.30
2023-11-05T20:15:07.812Z,6.70
2023-11-05T20:17:37.173Z,6.50
2023-11-05T20:20:05.717Z,5.80
2023-11-05T20:22:34.344Z,6.00
2023-11-05T20:25:02.261Z,5.90
2023-11-05T20:27:30.093Z,5.60
2023-11-05T20:29:57.956Z,7.40
2023-11-05T20:32:25.768Z,6.00
2023-11-05T20:34:55.517Z,5.50
2023-11-05T20:37:24.240Z,4.00
2023-11-05T20:39:52.168Z,5.10
2023-11-05T20:42:21.071Z,5.50
2023-11-05T20:44:48.892Z,5.50
2023-11-05T20:47:16.788Z,4.50
2023-11-05T20:49:45.512Z,4.20
2023-11-05T20:52:13.552Z,5.10
2023-11-05T20:54:41.372Z,4.20
2023-11-05T20:57:09.265Z,4.40
2023-11-05T20:59:37.250Z,3.70
2023-11-05T21:02:05.293Z,4.50
2023-11-05T21:04:33.173Z,4.60
2023-11-05T21:07:03.220Z,3.50
2023-11-05T21:09:31.241Z,3.90
2023-11-05T21:11:59.111Z,4.30
2023-11-05T21:14:27.757Z,4.10
2023-11-05T21:16:56.014Z,3.80
2023-11-05T21:19:24.023Z,3.60
2023-11-05T21:21:51.954Z,5.10
2023-11-05T21:24:19.821Z,3.50
2023-11-05T21:26:47.638Z,4.70
2023-11-05T21:29:17.813Z,3.70
2023-11-05T21:31:45.822Z,4.60
2023-11-05T21:34:13.878Z,4.20
2023-11-05T21:36:41.892Z,5.10
2023-11-05T21:39:14.966Z,4.20
2023-11-05T21:44:16.589Z,5.40
2023-11-05T21:46:45.958Z,4.60
2023-11-05T21:49:15.253Z,5.50
2023-11-05T21:51:43.089Z,4.70
2023-11-05T21:54:13.886Z,4.80
2023-11-05T21:56:43.726Z,4.40
2023-11-05T21:59:11.685Z,4.00
2023-11-05T22:01:39.574Z,4.00
2023-11-05T22:04:07.550Z,4.40
2023-11-05T22:06:35.625Z,4.50
2023-11-05T22:09:04.028Z,3.50
2023-11-05T22:11:31.865Z,3.80
2023-11-05T22:13:59.790Z,3.40
2023-11-05T22:16:27.631Z,3.30
2023-11-05T22:18:55.530Z,3.20
2023-11-05T22:21:23.440Z,3.30
2023-11-05T22:23:51.328Z,4.00
2023-11-05T22:26:19.210Z,3.40
2023-11-05T22:28:47.105Z,4.00
2023-11-05T22:31:15.094Z,3.80
2023-11-05T22:33:42.985Z,2.70
2023-11-05T22:36:11.837Z,3.70
2023-11-05T22:38:39.739Z,4.30
2023-11-05T22:41:07.789Z,3.80
2023-11-05T22:43:35.605Z,3.20
2023-11-05T22:46:04.137Z,3.80
2023-11-05T22:48:32.025Z,3.10
2023-11-05T22:50:59.967Z,3.00
2023-11-05T22:53:27.848Z,3.10
2023-11-05T22:55:55.826Z,2.70
2023-11-05T22:58:23.833Z,2.60
2023-11-05T23:00:52.687Z,2.70
2023-11-05T23:03:21.308Z,2.70
2023-11-05T23:05:53.688Z,2.60
2023-11-05T23:08:25.284Z,2.60
2023-11-05T23:10:53.180Z,2.60
2023-11-05T23:13:21.334Z,2.60
2023-11-05T23:15:50.242Z,3.20
2023-11-05T23:18:19.027Z,2.40
2023-11-05T23:20:46.922Z,2.80
2023-11-05T23:23:16.536Z,2.70
2023-11-05T23:25:44.634Z,2.80
2023-11-05T23:28:14.442Z,2.50
2023-11-05T23:30:42.653Z,2.50
2023-11-05T23:33:10.644Z,2.60
2023-11-05T23:35:42.138Z,2.30
2023-11-05T23:38:10.062Z,2.30
2023-11-05T23:40:38.547Z,2.40
2023-11-05T23:43:06.829Z,2.10
2023-11-05T23:45:35.323Z,2.60
2023-11-05T23:48:03.455Z,2.70
2023-11-05T23:50:31.378Z,2.70
2023-11-05T23:52:59.492Z,2.20
2023-11-05T23:55:27.428Z,2.60
2023-11-05T23:57:55.602Z,2.20
